San Luis Obispo, CA

3:00 PM PDT on September 19, 2014 (GMT -0700)
Lawrence Drive, San Luis Obispo | Change Station
CLOSE
Current Station
Personal Weather Station
Location: San Luis Obispo, CA
Elevation: 246 ft
Nearby Weather Stations

Elev 246 ft 35.26 °N, 120.66 °W | Updated 9 seconds ago

Clear
Clear
77.0 °F
Feels Like 79 °F
N
5.4
Wind Variable Wind from NNW
Gusts 14.5 mph

Today
High -- | Low -- °F
--% Chance of Precip.
Yesterday
High -- | Low -- °F
Precip. -- in
6:48 AM 7:03 PM
Waning Crescent, 16% visible
Pressure 29.85 in
Visibility 10.0 miles
Clouds Clear
Heat Index 79 °F
Dew Point 64 °F
Humidity 64%
Rainfall 0.00 in
Snow Depth 1 in
UV 0.0 out of 12
Pollen 6.60 out of 12
Air Quality Not available.
Flu Activity Not available.
METAR KSBP 192056Z 31012KT 10SM CLR 25/15 A2986 RMK AO2 SLP108 T02500150 56013

More Conditions Fewer Conditions

Pressure 29.85 in
Visibility 10.0 miles
Clouds Clear
Heat Index 79 °F
Dew Point 64 °F
Humidity 64%
Rainfall 0.00 in
Snow Depth 1 in
UV 0.0 out of 12
Pollen 6.60 out of 12
Air Quality Not available.
Flu Activity Not available.
METAR KSBP 192056Z 31012KT 10SM CLR 25/15 A2986 RMK AO2 SLP108 T02500150 56013

More Conditions Fewer Conditions

10-Day Weather Forecast

Almanac

Astronomy

Sep. 19, 2014 Rise Set
Actual Time 6:48 AM PDT 7:03 PM PDT
Civil Twilight 6:23 AM PDT 7:28 PM PDT
Nautical Twilight 5:53 AM PDT 7:58 PM PDT
Astronomical Twilight 5:23 AM PDT 8:28 PM PDT
Moon 2:45 AM PDT 4:29 PM PDT
Length of Visible Light 13h 05m
Length of Day
12h 15m
Tomorrow will be 2m 11s shorter.
Waning Crescent, 16% of the Moon is Illuminated
Today
Waning Crescent
Sep 24
New
Oct 1
First Quarter
Oct 8
Full
Oct 15
Last Quarter

Today's Extremes

State Highs State Lows

Community

WunderPhotos

Upload Photos

1,754,718 photos uploaded!

WunderBlogs® & News

By Dr. Jeff Masters
Director of Meteorology, Weather Underground
By Kari Strenfel
Meteorologist, Weather Underground
By Christopher C. Burt
Weather Historian, Weather Underground
September 19, 2014
September 19, 2014
September 19, 2014

Nearby

Snow Depth

Station Depth Elevation
CSS Lab 1 in 6900 ft
Summit Meadow 0 in 9122 ft
Leavitt Meadows 0 in 7200 ft
Adin Mountain 1 in 6200 ft

Earthquake Activity

City Distance Mag. Time & Date
Corcoran, California 77 miles 3.0 3:59 PM PDT
2014-09-18
Minimum magnitude displayed is 2.5.

Coastal Water Temperatures

Place Temperature
No Stations Reporting

Nearby Weather Stations